createdAt,value
2022-09-23T00:02:15.929Z,10.64
2022-09-23T00:04:46.614Z,10.67
2022-09-23T00:07:16.326Z,10.68
2022-09-23T00:09:46.071Z,10.72
2022-09-23T00:12:16.847Z,10.74
2022-09-23T00:14:46.648Z,10.78
2022-09-23T00:17:16.042Z,10.74
2022-09-23T00:19:45.751Z,10.79
2022-09-23T00:22:15.640Z,10.81
2022-09-23T00:24:45.500Z,10.88
2022-09-23T00:27:15.342Z,10.91
2022-09-23T00:29:44.652Z,10.81
2022-09-23T00:32:14.293Z,10.78
2022-09-23T00:34:46.293Z,10.71
2022-09-23T00:37:17.925Z,10.67
2022-09-23T00:39:50.549Z,10.67
2022-09-23T00:42:22.713Z,10.63
2022-09-23T00:44:55.501Z,10.58
2022-09-23T00:47:43.139Z,10.57
2022-09-23T00:50:16.705Z,10.56
2022-09-23T00:52:48.181Z,10.56
2022-09-23T00:55:23.348Z,10.51
2022-09-23T00:57:57.874Z,10.48
2022-09-23T01:00:27.936Z,10.54
2022-09-23T01:02:57.211Z,10.53
2022-09-23T01:05:27.433Z,10.56
2022-09-23T01:07:59.116Z,10.57
2022-09-23T01:10:38.037Z,10.56
2022-09-23T01:13:13.878Z,10.58
2022-09-23T01:16:07.344Z,10.56
2022-09-23T01:18:47.759Z,10.57
2022-09-23T01:21:37.613Z,10.64
2022-09-23T01:24:52.710Z,10.64
2022-09-23T01:27:53.836Z,10.65
2022-09-23T01:30:41.870Z,10.63
2022-09-23T01:33:20.005Z,10.65
2022-09-23T01:35:59.196Z,10.65
2022-09-23T01:39:04.965Z,10.65
2022-09-23T01:41:54.638Z,10.60
2022-09-23T01:44:32.113Z,10.56
2022-09-23T01:47:12.572Z,10.53
2022-09-23T01:50:32.535Z,10.53
2022-09-23T01:53:07.526Z,10.57
2022-09-23T01:55:42.480Z,10.51
2022-09-23T01:58:42.653Z,10.47
2022-09-23T02:01:20.567Z,10.44
2022-09-23T02:04:00.837Z,10.44
2022-09-23T02:06:37.476Z,10.46
2022-09-23T02:09:16.301Z,10.47
2022-09-23T02:11:49.624Z,10.54
2022-09-23T02:14:26.845Z,10.50
2022-09-23T02:17:02.082Z,10.51
2022-09-23T02:19:52.504Z,10.51
2022-09-23T02:22:29.802Z,10.51
2022-09-23T02:24:59.998Z,10.51
2022-09-23T02:27:56.561Z,10.51
2022-09-23T02:30:31.377Z,10.51
2022-09-23T02:33:12.904Z,10.48
2022-09-23T02:36:07.135Z,10.47
2022-09-23T02:38:52.279Z,10.44
2022-09-23T02:41:58.490Z,10.48
2022-09-23T02:44:29.481Z,10.51
2022-09-23T02:46:59.264Z,10.47
2022-09-23T02:49:31.375Z,10.51
2022-09-23T02:52:06.771Z,10.53
2022-09-23T02:54:38.212Z,10.51
2022-09-23T02:57:09.723Z,10.51
2022-09-23T02:59:40.429Z,10.51
2022-09-23T03:02:47.042Z,10.58
2022-09-23T03:05:26.320Z,10.53
2022-09-23T03:08:38.130Z,10.57
2022-09-23T03:11:12.327Z,10.56
2022-09-23T03:14:27.123Z,10.58
2022-09-23T03:17:29.159Z,10.60
2022-09-23T03:20:24.959Z,10.58
2022-09-23T03:23:03.522Z,10.61
2022-09-23T03:25:38.689Z,10.58
2022-09-23T03:28:10.128Z,10.60
2022-09-23T03:30:41.309Z,10.58
2022-09-23T03:33:15.038Z,10.64
2022-09-23T03:36:14.708Z,10.61
2022-09-23T03:38:52.144Z,10.58
2022-09-23T03:41:33.510Z,10.60
2022-09-23T03:44:04.547Z,10.58
2022-09-23T03:46:37.055Z,10.61
2022-09-23T03:49:31.220Z,10.63
2022-09-23T03:52:02.057Z,10.63
2022-09-23T03:54:32.514Z,10.64
2022-09-23T03:57:05.106Z,10.65
2022-09-23T03:59:35.657Z,10.58
2022-09-23T04:02:09.147Z,10.60
2022-09-23T04:04:41.625Z,10.61
2022-09-23T04:07:12.788Z,10.56
2022-09-23T04:09:43.185Z,10.54
2022-09-23T04:12:16.476Z,10.53
2022-09-23T04:14:46.784Z,10.53
2022-09-23T04:17:16.819Z,10.48
2022-09-23T04:19:46.783Z,10.46
2022-09-23T04:22:16.445Z,10.46
2022-09-23T04:24:46.670Z,10.43
2022-09-23T04:27:16.410Z,10.40
2022-09-23T04:29:45.870Z,10.40
2022-09-23T04:32:15.424Z,10.38
2022-09-23T04:34:45.568Z,10.33
2022-09-23T04:37:15.604Z,10.33
2022-09-23T04:39:46.194Z,10.29
2022-09-23T04:42:16.341Z,10.29
2022-09-23T04:44:46.013Z,10.26
2022-09-23T04:47:16.662Z,10.23
2022-09-23T04:49:46.789Z,10.20
2022-09-23T04:52:16.442Z,10.19
2022-09-23T04:54:46.099Z,10.19
2022-09-23T04:57:16.015Z,10.17
2022-09-23T04:59:46.927Z,10.14
2022-09-23T05:02:18.189Z,10.12
2022-09-23T05:04:48.082Z,10.12
2022-09-23T05:07:19.514Z,10.08
2022-09-23T05:09:49.572Z,10.03
2022-09-23T05:12:18.984Z,10.06
2022-09-23T05:14:49.016Z,9.99
2022-09-23T05:17:18.732Z,10.00
2022-09-23T05:19:49.363Z,9.93
2022-09-23T05:22:19.087Z,9.90
2022-09-23T05:24:48.728Z,9.83
2022-09-23T05:27:18.383Z,9.86
2022-09-23T05:29:49.969Z,9.83
2022-09-23T05:32:20.401Z,9.85
2022-09-23T05:34:49.895Z,9.82
2022-09-23T05:37:19.482Z,9.82
2022-09-23T05:39:49.141Z,9.83
2022-09-23T05:42:22.116Z,9.88
2022-09-23T05:44:52.209Z,9.86
2022-09-23T05:47:21.862Z,9.86
2022-09-23T05:50:00.926Z,9.89
2022-09-23T05:52:31.419Z,9.89
2022-09-23T05:55:02.011Z,9.89
2022-09-23T05:57:32.965Z,9.92
2022-09-23T06:00:02.943Z,9.93
2022-09-23T06:02:41.268Z,9.95
2022-09-23T06:05:12.913Z,9.96
2022-09-23T06:07:43.198Z,9.96
2022-09-23T06:10:12.930Z,9.98
2022-09-23T06:12:43.565Z,9.96
2022-09-23T06:15:13.401Z,10.00
2022-09-23T06:17:43.069Z,9.99
2022-09-23T06:20:12.784Z,9.96
2022-09-23T06:22:42.463Z,9.98
2022-09-23T06:25:13.379Z,9.98
2022-09-23T06:27:43.207Z,10.00
2022-09-23T06:30:13.485Z,9.99
2022-09-23T06:32:43.479Z,9.99
2022-09-23T06:35:24.417Z,9.99
2022-09-23T06:37:57.335Z,10.00
2022-09-23T06:40:27.764Z,10.03
2022-09-23T06:43:02.576Z,10.00
2022-09-23T06:45:34.019Z,9.99
2022-09-23T06:48:09.409Z,9.98
2022-09-23T06:50:39.583Z,9.96
2022-09-23T06:53:09.264Z,10.00
2022-09-23T06:55:38.819Z,10.03
2022-09-23T06:58:10.375Z,10.00
2022-09-23T07:00:40.413Z,9.95
2022-09-23T07:03:11.196Z,9.99
2022-09-23T07:05:41.134Z,9.99
2022-09-23T07:08:11.401Z,9.99
2022-09-23T07:10:41.954Z,10.03
2022-09-23T07:13:15.582Z,10.00
2022-09-23T07:15:54.482Z,10.00
2022-09-23T07:18:25.021Z,9.95
2022-09-23T07:20:59.903Z,9.96
2022-09-23T07:23:30.247Z,9.99
2022-09-23T07:26:01.561Z,9.96
2022-09-23T07:28:31.722Z,9.95
2022-09-23T07:31:37.704Z,9.98
2022-09-23T07:34:12.460Z,9.98
2022-09-23T07:36:42.690Z,9.96
2022-09-23T07:39:13.924Z,9.95
2022-09-23T07:41:45.504Z,9.96
2022-09-23T07:44:15.872Z,9.88
2022-09-23T07:46:45.353Z,9.93
2022-09-23T07:49:15.170Z,9.90
2022-09-23T07:51:47.479Z,9.88
2022-09-23T07:54:18.589Z,9.89
2022-09-23T07:56:48.677Z,9.86
2022-09-23T07:59:20.146Z,9.85
2022-09-23T08:01:53.808Z,9.81
2022-09-23T08:04:26.616Z,9.81
2022-09-23T08:07:09.184Z,9.82
2022-09-23T08:09:44.172Z,9.79
2022-09-23T08:12:18.763Z,9.75
2022-09-23T08:14:48.576Z,9.74
2022-09-23T08:17:18.946Z,9.67
2022-09-23T08:19:49.345Z,9.57
2022-09-23T08:22:20.358Z,9.44
2022-09-23T08:24:51.223Z,9.42
2022-09-23T08:27:22.513Z,9.34
2022-09-23T08:29:52.248Z,9.24
2022-09-23T08:32:21.898Z,9.09
2022-09-23T08:34:52.100Z,9.06
2022-09-23T08:37:21.470Z,9.04
2022-09-23T08:39:51.024Z,9.04
2022-09-23T08:42:28.783Z,9.03
2022-09-23T08:45:03.292Z,8.94
2022-09-23T08:48:10.868Z,8.86
2022-09-23T08:50:51.084Z,8.75
2022-09-23T08:53:30.335Z,8.69
2022-09-23T08:56:02.612Z,8.66
2022-09-23T08:58:50.517Z,8.70
2022-09-23T09:01:41.561Z,8.66
2022-09-23T09:04:21.018Z,8.63
2022-09-23T09:10:29.369Z,8.55
2022-09-23T09:13:10.453Z,8.58
2022-09-23T09:15:55.098Z,8.46
2022-09-23T09:18:26.350Z,8.45
2022-09-23T09:21:12.923Z,8.45
2022-09-23T09:23:56.286Z,8.46
2022-09-23T09:26:29.654Z,8.48
2022-09-23T09:29:33.768Z,8.49
2022-09-23T09:32:01.669Z,8.48
2022-09-23T09:34:41.838Z,8.53
2022-09-23T09:37:13.749Z,8.51
2022-09-23T09:39:43.719Z,8.53
2022-09-23T09:42:29.092Z,8.56
2022-09-23T09:45:03.478Z,8.56
2022-09-23T09:47:53.057Z,8.48
2022-09-23T09:50:54.426Z,8.63
2022-09-23T09:53:27.308Z,8.68
2022-09-23T09:56:11.979Z,8.96
2022-09-23T09:58:55.453Z,9.07
2022-09-23T10:01:28.675Z,9.20
2022-09-23T10:04:02.070Z,9.35
2022-09-23T10:06:35.023Z,9.44
2022-09-23T10:09:38.010Z,9.61
2022-09-23T10:12:21.697Z,9.74
2022-09-23T10:14:57.094Z,9.90
2022-09-23T10:17:35.968Z,10.05
2022-09-23T10:20:10.668Z,10.14
2022-09-23T10:22:43.981Z,10.27
2022-09-23T10:25:28.673Z,10.37
2022-09-23T10:27:58.877Z,10.51
2022-09-23T10:30:30.158Z,10.64
2022-09-23T10:33:00.039Z,10.74
2022-09-23T10:35:30.346Z,10.81
2022-09-23T10:38:01.964Z,10.98
2022-09-23T10:41:03.488Z,11.27
2022-09-23T10:44:32.375Z,11.46
2022-09-23T10:47:16.945Z,11.90
2022-09-23T10:50:00.740Z,12.29
2022-09-23T10:52:52.048Z,12.22
2022-09-23T10:55:31.309Z,12.29
2022-09-23T10:58:07.262Z,12.56
2022-09-23T11:01:10.680Z,14.34
2022-09-23T11:04:04.832Z,18.17
2022-09-23T11:07:02.645Z,17.35
2022-09-23T11:09:49.302Z,14.67
2022-09-23T11:12:34.526Z,18.61
2022-09-23T11:15:34.274Z,18.78
2022-09-23T11:18:25.281Z,18.44
2022-09-23T11:21:21.390Z,17.85
2022-09-23T11:23:59.968Z,18.23
2022-09-23T11:26:48.927Z,18.47
2022-09-23T11:29:55.743Z,19.02
2022-09-23T11:32:44.088Z,18.26
2022-09-23T11:35:18.772Z,18.45
2022-09-23T11:38:17.445Z,18.55
2022-09-23T11:40:49.358Z,17.85
2022-09-23T11:43:29.886Z,17.35
2022-09-23T11:46:04.795Z,17.68
2022-09-23T11:48:50.744Z,17.20
2022-09-23T11:51:28.174Z,16.97
2022-09-23T11:54:08.247Z,17.03
2022-09-23T11:56:53.230Z,17.06
2022-09-23T11:59:45.454Z,16.94
2022-09-23T12:02:30.635Z,17.04
2022-09-23T12:05:17.607Z,16.80
2022-09-23T12:07:59.170Z,17.14
2022-09-23T12:10:39.206Z,17.46
2022-09-23T12:13:34.979Z,18.02
2022-09-23T12:16:32.422Z,17.32
2022-09-23T12:19:43.909Z,17.48
2022-09-23T12:22:29.656Z,17.82
2022-09-23T12:25:17.259Z,17.94
2022-09-23T12:27:51.745Z,17.62
2022-09-23T12:30:29.249Z,17.71
2022-09-23T12:33:33.539Z,17.49
2022-09-23T12:36:13.329Z,17.46
2022-09-23T12:38:51.494Z,17.72
2022-09-23T12:41:30.034Z,17.92
2022-09-23T12:44:14.052Z,18.12
2022-09-23T12:46:48.160Z,18.12
2022-09-23T12:49:27.316Z,18.58
2022-09-23T12:52:12.562Z,18.75
2022-09-23T12:54:44.717Z,18.79
2022-09-23T12:57:16.044Z,18.50
2022-09-23T12:59:59.184Z,18.71
2022-09-23T13:02:34.674Z,18.68
2022-09-23T13:05:42.798Z,18.84
2022-09-23T13:08:25.720Z,19.18
2022-09-23T13:11:02.332Z,18.75
2022-09-23T13:13:42.073Z,18.82
2022-09-23T13:16:33.768Z,19.39
2022-09-23T13:19:24.433Z,20.02
2022-09-23T13:22:13.093Z,19.43
2022-09-23T13:24:45.399Z,19.26
2022-09-23T13:27:28.245Z,19.15
2022-09-23T13:30:08.892Z,19.50
2022-09-23T13:32:46.267Z,20.08
2022-09-23T13:35:35.073Z,20.32
2022-09-23T13:38:41.018Z,20.19
2022-09-23T13:41:24.972Z,19.60
2022-09-23T13:44:00.572Z,19.87
2022-09-23T13:46:32.642Z,20.16
2022-09-23T13:49:04.080Z,20.18
2022-09-23T13:51:36.319Z,19.98
2022-09-23T13:54:06.926Z,20.12
2022-09-23T13:56:38.874Z,20.84
2022-09-23T13:59:29.044Z,20.84
2022-09-23T14:02:18.509Z,21.07
2022-09-23T14:04:50.088Z,20.40
2022-09-23T14:07:21.449Z,20.67
2022-09-23T14:09:57.108Z,20.94
2022-09-23T14:12:27.546Z,21.44
2022-09-23T14:14:58.450Z,21.07
2022-09-23T14:17:28.195Z,21.01
2022-09-23T14:19:57.952Z,21.49
2022-09-23T14:22:31.492Z,21.12
2022-09-23T14:25:01.615Z,20.80
2022-09-23T14:27:32.674Z,20.97
2022-09-23T14:30:06.168Z,20.66
2022-09-23T14:32:36.312Z,21.03
2022-09-23T14:35:08.836Z,21.31
2022-09-23T14:37:56.554Z,21.15
2022-09-23T14:40:30.013Z,21.35
2022-09-23T14:43:17.335Z,21.37
2022-09-23T14:45:51.673Z,21.63
2022-09-23T14:48:31.895Z,21.03
2022-09-23T14:51:14.685Z,21.62
2022-09-23T14:53:48.328Z,21.99
2022-09-23T14:56:24.663Z,22.25
2022-09-23T14:59:01.903Z,22.13
2022-09-23T15:01:35.153Z,22.07
2022-09-23T15:04:13.170Z,21.31
2022-09-23T15:07:06.170Z,21.49
2022-09-23T15:09:45.734Z,21.67
2022-09-23T15:12:16.976Z,22.17
2022-09-23T15:14:52.932Z,22.51
2022-09-23T15:17:26.561Z,21.73
2022-09-23T15:20:01.147Z,22.34
2022-09-23T15:22:31.796Z,22.47
2022-09-23T15:25:18.427Z,22.29
2022-09-23T15:28:00.455Z,22.23
2022-09-23T15:30:31.982Z,22.12
2022-09-23T15:33:02.452Z,21.72
2022-09-23T15:35:36.188Z,21.85
2022-09-23T15:38:06.591Z,22.81
2022-09-23T15:40:38.068Z,22.92
2022-09-23T15:43:21.496Z,22.73
2022-09-23T15:45:53.238Z,22.25
2022-09-23T15:48:27.619Z,22.41
2022-09-23T15:50:57.897Z,22.62
2022-09-23T15:53:31.039Z,21.97
2022-09-23T15:56:01.229Z,22.17
2022-09-23T15:58:31.146Z,22.40
2022-09-23T16:01:02.076Z,22.51
2022-09-23T16:03:32.218Z,22.94
2022-09-23T16:06:04.696Z,22.20
2022-09-23T16:08:34.969Z,22.40
2022-09-23T16:11:04.700Z,23.13
2022-09-23T16:13:34.882Z,23.30
2022-09-23T16:16:04.592Z,23.05
2022-09-23T16:18:34.357Z,23.36
2022-09-23T16:21:05.931Z,23.57
2022-09-23T16:23:39.920Z,23.22
2022-09-23T16:26:16.805Z,23.06
2022-09-23T16:28:48.528Z,23.80
2022-09-23T16:31:18.774Z,23.37
2022-09-23T16:33:50.189Z,23.02
2022-09-23T16:36:28.134Z,23.47
2022-09-23T16:39:03.345Z,23.23
2022-09-23T16:41:33.739Z,22.61
2022-09-23T16:44:06.510Z,22.75
2022-09-23T16:46:36.698Z,22.51
2022-09-23T16:49:07.075Z,22.65
2022-09-23T16:51:39.637Z,22.98
2022-09-23T16:54:13.071Z,22.95
2022-09-23T16:56:45.486Z,22.88
2022-09-23T16:59:16.586Z,22.81
2022-09-23T17:02:04.644Z,23.49
2022-09-23T17:04:34.773Z,23.45
2022-09-23T17:07:04.546Z,23.54
2022-09-23T17:09:34.305Z,23.09
2022-09-23T17:12:21.001Z,23.29
2022-09-23T17:14:50.940Z,23.02
2022-09-23T17:17:20.934Z,23.13
2022-09-23T17:19:50.634Z,23.47
2022-09-23T17:22:20.315Z,23.54
2022-09-23T17:24:50.181Z,23.54
2022-09-23T17:27:19.930Z,23.49
2022-09-23T17:29:49.813Z,23.93
2022-09-23T17:32:19.581Z,23.57
2022-09-23T17:34:49.254Z,23.64
2022-09-23T17:37:19.640Z,23.39
2022-09-23T17:39:49.365Z,23.05
2022-09-23T17:42:20.506Z,23.33
2022-09-23T17:44:50.599Z,22.99
2022-09-23T17:47:20.451Z,23.34
2022-09-23T17:49:50.674Z,23.18
2022-09-23T17:52:21.091Z,23.27
2022-09-23T17:54:50.770Z,22.87
2022-09-23T17:57:20.470Z,23.29
2022-09-23T17:59:53.529Z,23.15
2022-09-23T18:02:23.702Z,23.02
2022-09-23T18:04:53.493Z,23.24
2022-09-23T18:07:23.180Z,23.46
2022-09-23T18:09:53.133Z,23.30
2022-09-23T18:12:22.817Z,23.33
2022-09-23T18:14:52.601Z,23.50
2022-09-23T18:17:22.605Z,23.02
2022-09-23T18:19:52.434Z,24.12
2022-09-23T18:22:22.085Z,23.89
2022-09-23T18:24:51.769Z,23.71
2022-09-23T18:27:21.415Z,23.74
2022-09-23T18:29:51.070Z,23.27
2022-09-23T18:32:22.858Z,22.84
2022-09-23T18:34:52.940Z,22.96
2022-09-23T18:37:22.601Z,22.73
2022-09-23T18:39:52.306Z,23.53
2022-09-23T18:42:23.683Z,23.94
2022-09-23T18:44:57.396Z,24.98
2022-09-23T18:47:47.049Z,25.83
2022-09-23T18:50:38.686Z,25.83
2022-09-23T18:53:09.469Z,25.35
2022-09-23T18:55:39.617Z,26.10
2022-09-23T18:58:09.328Z,26.09
2022-09-23T19:00:39.277Z,25.57
2022-09-23T19:03:09.106Z,25.34
2022-09-23T19:05:38.973Z,25.99
2022-09-23T19:08:09.656Z,26.91
2022-09-23T19:10:39.765Z,27.03
2022-09-23T19:13:09.910Z,27.03
2022-09-23T19:15:39.643Z,26.85
2022-09-23T19:18:09.797Z,27.86
2022-09-23T19:20:39.541Z,28.46
2022-09-23T19:23:09.192Z,27.81
2022-09-23T19:25:38.847Z,27.93
2022-09-23T19:28:09.821Z,28.11
2022-09-23T19:30:40.096Z,27.77
2022-09-23T19:33:10.532Z,28.02
2022-09-23T19:35:50.341Z,28.08
2022-09-23T19:38:22.498Z,27.80
2022-09-23T19:40:53.304Z,27.47
2022-09-23T19:43:26.212Z,26.92
2022-09-23T19:45:56.754Z,27.36
2022-09-23T19:48:26.441Z,27.57
2022-09-23T19:50:56.170Z,26.70
2022-09-23T19:53:28.100Z,25.54
2022-09-23T19:55:58.495Z,24.56
2022-09-23T19:58:28.360Z,25.65
2022-09-23T20:00:58.825Z,25.97
2022-09-23T20:03:34.597Z,23.39
2022-09-23T20:06:04.450Z,20.81
2022-09-23T20:08:37.767Z,19.75
2022-09-23T20:11:22.662Z,19.60
2022-09-23T20:14:05.026Z,19.41
2022-09-23T20:16:38.483Z,20.28
2022-09-23T20:19:11.248Z,20.57
2022-09-23T20:21:41.363Z,19.18
2022-09-23T20:24:13.119Z,18.65
2022-09-23T20:27:01.387Z,18.47
2022-09-23T20:29:32.917Z,18.21
2022-09-23T20:32:02.965Z,18.68
2022-09-23T20:34:34.732Z,20.94
2022-09-23T20:37:06.695Z,19.81
2022-09-23T20:39:36.775Z,18.96
2022-09-23T20:42:09.628Z,18.48
2022-09-23T20:44:40.497Z,18.54
2022-09-23T20:47:15.320Z,18.24
2022-09-23T20:49:49.997Z,18.02
2022-09-23T20:52:21.408Z,17.75
2022-09-23T20:54:52.802Z,17.55
2022-09-23T20:57:22.657Z,17.39
2022-09-23T20:59:52.529Z,17.21
2022-09-23T21:02:22.797Z,17.11
2022-09-23T21:04:53.219Z,17.04
2022-09-23T21:07:24.932Z,16.79
2022-09-23T21:09:55.598Z,16.77
2022-09-23T21:12:25.308Z,16.46
2022-09-23T21:14:54.977Z,16.35
2022-09-23T21:17:24.664Z,16.33
2022-09-23T21:19:54.714Z,16.11
2022-09-23T21:22:24.430Z,15.93
2022-09-23T21:25:26.289Z,15.76
2022-09-23T21:27:44.373Z,15.39
2022-09-23T21:30:14.390Z,15.10
2022-09-23T21:32:44.349Z,14.84
2022-09-23T21:35:14.031Z,14.56
2022-09-23T21:37:43.223Z,14.34
2022-09-23T21:40:31.625Z,14.08
2022-09-23T21:43:02.459Z,13.90
2022-09-23T21:45:32.796Z,13.87
2022-09-23T21:48:02.509Z,14.05
2022-09-23T21:50:31.762Z,14.23
2022-09-23T21:53:02.054Z,14.40
2022-09-23T21:55:31.741Z,14.44
2022-09-23T21:58:01.019Z,14.56
2022-09-23T22:00:30.722Z,14.65
2022-09-23T22:03:00.412Z,14.74
2022-09-23T22:05:29.617Z,14.71
2022-09-23T22:07:59.324Z,14.65
2022-09-23T22:10:29.332Z,14.45
2022-09-23T22:13:00.293Z,14.36
2022-09-23T22:15:37.814Z,14.27
2022-09-23T22:18:07.896Z,14.31
2022-09-23T22:20:38.221Z,14.19
2022-09-23T22:23:07.894Z,14.21
2022-09-23T22:25:37.086Z,14.06
2022-09-23T22:28:32.415Z,13.90
2022-09-23T22:31:20.820Z,13.73
2022-09-23T22:33:54.487Z,13.58
2022-09-23T22:36:24.591Z,13.42
2022-09-23T22:38:59.292Z,13.27
2022-09-23T22:41:29.533Z,13.10
2022-09-23T22:44:01.853Z,13.01
2022-09-23T22:46:35.830Z,12.89
2022-09-23T22:49:09.325Z,12.73
2022-09-23T22:51:40.469Z,12.67
2022-09-23T22:54:11.521Z,12.72
2022-09-23T22:56:42.515Z,12.66
2022-09-23T22:59:14.378Z,12.56
2022-09-23T23:01:45.113Z,12.52
2022-09-23T23:04:15.926Z,12.36
2022-09-23T23:06:46.800Z,12.31
2022-09-23T23:09:19.733Z,12.17
2022-09-23T23:11:49.898Z,12.20
2022-09-23T23:14:19.810Z,12.08
2022-09-23T23:16:50.386Z,11.99
2022-09-23T23:19:20.268Z,11.95
2022-09-23T23:21:51.880Z,12.08
2022-09-23T23:24:24.472Z,12.08
2022-09-23T23:26:54.831Z,12.02
2022-09-23T23:29:25.001Z,12.10
2022-09-23T23:31:55.120Z,11.97
2022-09-23T23:34:24.913Z,11.87
2022-09-23T23:36:58.260Z,11.84
2022-09-23T23:39:28.625Z,11.84
2022-09-23T23:41:59.590Z,11.80
2022-09-23T23:44:32.215Z,11.71
2022-09-23T23:47:02.880Z,11.66
2022-09-23T23:49:33.016Z,11.54
2022-09-23T23:52:02.908Z,11.47
2022-09-23T23:54:34.091Z,11.43
2022-09-23T23:57:04.250Z,11.43
2022-09-23T23:59:34.282Z,11.36
